sensor_id;sensor_type;location;lat;lon;timestamp;P1;durP1;ratioP1;P2;durP2;ratioP2
7031;SDS011;3557;48.880;8.328;2023-04-28T00:02:21;2.22;;;2.00;;
7031;SDS011;3557;48.880;8.328;2023-04-28T00:04:48;2.83;;;1.80;;
7031;SDS011;3557;48.880;8.328;2023-04-28T00:07:15;2.58;;;1.88;;
7031;SDS011;3557;48.880;8.328;2023-04-28T00:09:44;3.72;;;2.00;;
7031;SDS011;3557;48.880;8.328;2023-04-28T00:12:11;4.20;;;1.85;;
7031;SDS011;3557;48.880;8.328;2023-04-28T00:14:39;4.43;;;2.15;;
7031;SDS011;3557;48.880;8.328;2023-04-28T00:17:06;2.17;;;1.73;;
7031;SDS011;3557;48.880;8.328;2023-04-28T00:19:34;2.35;;;2.03;;
7031;SDS011;3557;48.880;8.328;2023-04-28T00:22:02;4.32;;;2.00;;
7031;SDS011;3557;48.880;8.328;2023-04-28T00:24:30;2.55;;;1.70;;
7031;SDS011;3557;48.880;8.328;2023-04-28T00:26:59;4.18;;;2.20;;
7031;SDS011;3557;48.880;8.328;2023-04-28T00:29:27;2.20;;;2.00;;
7031;SDS011;3557;48.880;8.328;2023-04-28T00:31:54;2.45;;;1.77;;
7031;SDS011;3557;48.880;8.328;2023-04-28T00:34:22;4.50;;;2.05;;
7031;SDS011;3557;48.880;8.328;2023-04-28T00:36:49;3.08;;;2.10;;
7031;SDS011;3557;48.880;8.328;2023-04-28T00:39:16;3.90;;;2.28;;
7031;SDS011;3557;48.880;8.328;2023-04-28T00:41:45;4.47;;;2.42;;
7031;SDS011;3557;48.880;8.328;2023-04-28T00:44:13;2.47;;;2.13;;
7031;SDS011;3557;48.880;8.328;2023-04-28T00:46:41;5.20;;;2.28;;
7031;SDS011;3557;48.880;8.328;2023-04-28T00:49:08;2.78;;;2.03;;
7031;SDS011;3557;48.880;8.328;2023-04-28T00:51:36;3.17;;;2.10;;
7031;SDS011;3557;48.880;8.328;2023-04-28T00:54:04;2.42;;;2.05;;
7031;SDS011;3557;48.880;8.328;2023-04-28T00:56:32;2.45;;;2.20;;
7031;SDS011;3557;48.880;8.328;2023-04-28T00:59:00;2.78;;;2.30;;
7031;SDS011;3557;48.880;8.328;2023-04-28T01:01:29;3.72;;;2.40;;
7031;SDS011;3557;48.880;8.328;2023-04-28T01:03:57;4.15;;;2.22;;
7031;SDS011;3557;48.880;8.328;2023-04-28T01:06:26;2.60;;;1.95;;
7031;SDS011;3557;48.880;8.328;2023-04-28T01:08:55;2.95;;;2.30;;
7031;SDS011;3557;48.880;8.328;2023-04-28T01:11:23;2.60;;;2.20;;
7031;SDS011;3557;48.880;8.328;2023-04-28T01:14:05;4.95;;;2.80;;
7031;SDS011;3557;48.880;8.328;2023-04-28T01:16:37;3.97;;;2.42;;
7031;SDS011;3557;48.880;8.328;2023-04-28T01:19:05;4.72;;;2.25;;
7031;SDS011;3557;48.880;8.328;2023-04-28T01:21:36;2.40;;;2.20;;
7031;SDS011;3557;48.880;8.328;2023-04-28T01:24:17;3.60;;;2.30;;
7031;SDS011;3557;48.880;8.328;2023-04-28T01:26:44;2.67;;;2.33;;
7031;SDS011;3557;48.880;8.328;2023-04-28T01:29:11;3.88;;;2.42;;
7031;SDS011;3557;48.880;8.328;2023-04-28T01:31:40;2.67;;;2.20;;
7031;SDS011;3557;48.880;8.328;2023-04-28T01:34:07;3.00;;;2.40;;
7031;SDS011;3557;48.880;8.328;2023-04-28T01:36:35;4.00;;;2.50;;
7031;SDS011;3557;48.880;8.328;2023-04-28T01:39:03;3.33;;;2.47;;
7031;SDS011;3557;48.880;8.328;2023-04-28T01:41:33;4.57;;;2.80;;
7031;SDS011;3557;48.880;8.328;2023-04-28T01:44:02;4.25;;;2.60;;
7031;SDS011;3557;48.880;8.328;2023-04-28T01:46:31;2.45;;;2.25;;
7031;SDS011;3557;48.880;8.328;2023-04-28T01:48:59;3.45;;;2.35;;
7031;SDS011;3557;48.880;8.328;2023-04-28T01:51:26;2.95;;;2.30;;
7031;SDS011;3557;48.880;8.328;2023-04-28T01:53:53;3.65;;;2.55;;
7031;SDS011;3557;48.880;8.328;2023-04-28T01:56:21;4.20;;;2.63;;
7031;SDS011;3557;48.880;8.328;2023-04-28T01:58:51;4.18;;;2.58;;
7031;SDS011;3557;48.880;8.328;2023-04-28T02:01:19;4.30;;;2.40;;
7031;SDS011;3557;48.880;8.328;2023-04-28T02:03:47;2.83;;;2.38;;
7031;SDS011;3557;48.880;8.328;2023-04-28T02:06:14;2.90;;;2.33;;
7031;SDS011;3557;48.880;8.328;2023-04-28T02:08:42;3.03;;;2.30;;
7031;SDS011;3557;48.880;8.328;2023-04-28T02:11:11;4.50;;;2.50;;
7031;SDS011;3557;48.880;8.328;2023-04-28T02:13:39;3.22;;;2.50;;
7031;SDS011;3557;48.880;8.328;2023-04-28T02:16:08;5.72;;;2.53;;
7031;SDS011;3557;48.880;8.328;2023-04-28T02:18:35;5.03;;;2.83;;
7031;SDS011;3557;48.880;8.328;2023-04-28T02:21:09;3.17;;;2.40;;
7031;SDS011;3557;48.880;8.328;2023-04-28T02:23:37;3.83;;;2.70;;
7031;SDS011;3557;48.880;8.328;2023-04-28T02:26:04;7.07;;;2.58;;
7031;SDS011;3557;48.880;8.328;2023-04-28T02:28:32;4.78;;;2.50;;
7031;SDS011;3557;48.880;8.328;2023-04-28T02:31:03;5.10;;;2.72;;
7031;SDS011;3557;48.880;8.328;2023-04-28T02:33:33;4.32;;;2.60;;
7031;SDS011;3557;48.880;8.328;2023-04-28T02:36:01;2.97;;;2.40;;
7031;SDS011;3557;48.880;8.328;2023-04-28T02:38:29;3.97;;;2.47;;
7031;SDS011;3557;48.880;8.328;2023-04-28T02:40:57;2.85;;;2.40;;
7031;SDS011;3557;48.880;8.328;2023-04-28T02:43:25;3.08;;;2.20;;
7031;SDS011;3557;48.880;8.328;2023-04-28T02:45:53;6.65;;;2.42;;
7031;SDS011;3557;48.880;8.328;2023-04-28T02:48:20;4.50;;;2.30;;
7031;SDS011;3557;48.880;8.328;2023-04-28T02:50:49;2.97;;;2.30;;
7031;SDS011;3557;48.880;8.328;2023-04-28T02:53:17;3.63;;;2.38;;
7031;SDS011;3557;48.880;8.328;2023-04-28T02:55:45;2.90;;;2.60;;
7031;SDS011;3557;48.880;8.328;2023-04-28T02:58:12;2.75;;;2.50;;
7031;SDS011;3557;48.880;8.328;2023-04-28T03:00:42;8.38;;;2.60;;
7031;SDS011;3557;48.880;8.328;2023-04-28T03:03:09;3.28;;;2.55;;
7031;SDS011;3557;48.880;8.328;2023-04-28T03:05:37;6.93;;;2.40;;
7031;SDS011;3557;48.880;8.328;2023-04-28T03:08:06;2.53;;;2.33;;
7031;SDS011;3557;48.880;8.328;2023-04-28T03:10:33;3.78;;;2.65;;
7031;SDS011;3557;48.880;8.328;2023-04-28T03:13:01;4.03;;;2.40;;
7031;SDS011;3557;48.880;8.328;2023-04-28T03:15:29;5.70;;;2.58;;
7031;SDS011;3557;48.880;8.328;2023-04-28T03:17:57;2.67;;;2.25;;
7031;SDS011;3557;48.880;8.328;2023-04-28T03:20:24;2.90;;;2.60;;
7031;SDS011;3557;48.880;8.328;2023-04-28T03:22:52;3.67;;;2.85;;
7031;SDS011;3557;48.880;8.328;2023-04-28T03:25:21;2.53;;;2.30;;
7031;SDS011;3557;48.880;8.328;2023-04-28T03:27:50;4.72;;;2.88;;
7031;SDS011;3557;48.880;8.328;2023-04-28T03:30:17;5.50;;;2.45;;
7031;SDS011;3557;48.880;8.328;2023-04-28T03:32:45;3.45;;;2.50;;
7031;SDS011;3557;48.880;8.328;2023-04-28T03:35:13;2.75;;;2.55;;
7031;SDS011;3557;48.880;8.328;2023-04-28T03:37:42;4.80;;;2.50;;
7031;SDS011;3557;48.880;8.328;2023-04-28T03:40:09;3.00;;;2.30;;
7031;SDS011;3557;48.880;8.328;2023-04-28T03:42:56;3.30;;;2.33;;
7031;SDS011;3557;48.880;8.328;2023-04-28T03:45:34;3.63;;;2.28;;
7031;SDS011;3557;48.880;8.328;2023-04-28T03:48:01;2.40;;;2.20;;
7031;SDS011;3557;48.880;8.328;2023-04-28T03:50:29;2.75;;;2.33;;
7031;SDS011;3557;48.880;8.328;2023-04-28T03:52:57;5.85;;;2.33;;
7031;SDS011;3557;48.880;8.328;2023-04-28T03:55:25;4.15;;;2.20;;
7031;SDS011;3557;48.880;8.328;2023-04-28T03:57:53;3.60;;;2.10;;
7031;SDS011;3557;48.880;8.328;2023-04-28T04:00:21;4.10;;;2.53;;
7031;SDS011;3557;48.880;8.328;2023-04-28T04:02:51;3.03;;;2.40;;
7031;SDS011;3557;48.880;8.328;2023-04-28T04:05:19;5.45;;;2.20;;
7031;SDS011;3557;48.880;8.328;2023-04-28T04:07:47;3.67;;;2.50;;
7031;SDS011;3557;48.880;8.328;2023-04-28T04:10:14;3.25;;;2.50;;
7031;SDS011;3557;48.880;8.328;2023-04-28T04:12:43;4.32;;;2.55;;
7031;SDS011;3557;48.880;8.328;2023-04-28T04:15:10;4.28;;;2.40;;
7031;SDS011;3557;48.880;8.328;2023-04-28T04:17:42;3.13;;;2.50;;
7031;SDS011;3557;48.880;8.328;2023-04-28T04:20:09;3.08;;;2.55;;
7031;SDS011;3557;48.880;8.328;2023-04-28T04:22:37;13.30;;;7.10;;
7031;SDS011;3557;48.880;8.328;2023-04-28T04:25:05;3.50;;;2.80;;
7031;SDS011;3557;48.880;8.328;2023-04-28T04:27:34;2.85;;;2.38;;
7031;SDS011;3557;48.880;8.328;2023-04-28T04:30:02;3.47;;;2.40;;
7031;SDS011;3557;48.880;8.328;2023-04-28T04:32:30;3.65;;;2.50;;
7031;SDS011;3557;48.880;8.328;2023-04-28T04:34:59;5.55;;;2.90;;
7031;SDS011;3557;48.880;8.328;2023-04-28T04:37:26;3.20;;;2.60;;
7031;SDS011;3557;48.880;8.328;2023-04-28T04:39:58;2.97;;;2.53;;
7031;SDS011;3557;48.880;8.328;2023-04-28T04:42:30;2.88;;;2.38;;
7031;SDS011;3557;48.880;8.328;2023-04-28T04:45:07;8.18;;;2.88;;
7031;SDS011;3557;48.880;8.328;2023-04-28T04:47:35;4.20;;;2.33;;
7031;SDS011;3557;48.880;8.328;2023-04-28T04:50:04;4.75;;;2.53;;
7031;SDS011;3557;48.880;8.328;2023-04-28T04:52:33;2.30;;;2.10;;
7031;SDS011;3557;48.880;8.328;2023-04-28T04:55:02;3.92;;;2.67;;
7031;SDS011;3557;48.880;8.328;2023-04-28T04:57:31;2.42;;;2.20;;
7031;SDS011;3557;48.880;8.328;2023-04-28T05:00:05;4.90;;;2.50;;
7031;SDS011;3557;48.880;8.328;2023-04-28T05:02:34;5.72;;;2.88;;
7031;SDS011;3557;48.880;8.328;2023-04-28T05:05:05;4.15;;;2.80;;
7031;SDS011;3557;48.880;8.328;2023-04-28T05:07:33;4.47;;;2.53;;
7031;SDS011;3557;48.880;8.328;2023-04-28T05:10:01;3.30;;;2.38;;
7031;SDS011;3557;48.880;8.328;2023-04-28T05:12:29;3.70;;;2.72;;
7031;SDS011;3557;48.880;8.328;2023-04-28T05:14:56;4.28;;;2.88;;
7031;SDS011;3557;48.880;8.328;2023-04-28T05:17:24;3.05;;;2.47;;
7031;SDS011;3557;48.880;8.328;2023-04-28T05:19:51;4.00;;;2.75;;
7031;SDS011;3557;48.880;8.328;2023-04-28T05:22:20;4.35;;;2.90;;
7031;SDS011;3557;48.880;8.328;2023-04-28T05:24:47;3.72;;;3.00;;
7031;SDS011;3557;48.880;8.328;2023-04-28T05:27:15;3.85;;;2.95;;
7031;SDS011;3557;48.880;8.328;2023-04-28T05:29:43;3.50;;;2.90;;
7031;SDS011;3557;48.880;8.328;2023-04-28T05:32:10;5.35;;;2.97;;
7031;SDS011;3557;48.880;8.328;2023-04-28T05:34:38;4.18;;;2.85;;
7031;SDS011;3557;48.880;8.328;2023-04-28T05:37:05;3.42;;;2.90;;
7031;SDS011;3557;48.880;8.328;2023-04-28T05:39:36;3.30;;;2.72;;
7031;SDS011;3557;48.880;8.328;2023-04-28T05:42:05;3.83;;;3.22;;
7031;SDS011;3557;48.880;8.328;2023-04-28T05:44:33;3.28;;;2.70;;
7031;SDS011;3557;48.880;8.328;2023-04-28T05:47:00;3.17;;;2.83;;
7031;SDS011;3557;48.880;8.328;2023-04-28T05:49:28;2.85;;;2.60;;
7031;SDS011;3557;48.880;8.328;2023-04-28T05:51:55;5.25;;;2.75;;
7031;SDS011;3557;48.880;8.328;2023-04-28T05:54:23;3.78;;;2.78;;
7031;SDS011;3557;48.880;8.328;2023-04-28T05:56:54;3.38;;;2.80;;
7031;SDS011;3557;48.880;8.328;2023-04-28T05:59:23;3.38;;;2.60;;
7031;SDS011;3557;48.880;8.328;2023-04-28T06:01:52;3.90;;;2.47;;
7031;SDS011;3557;48.880;8.328;2023-04-28T06:04:20;3.08;;;2.78;;
7031;SDS011;3557;48.880;8.328;2023-04-28T06:06:48;2.70;;;2.40;;
7031;SDS011;3557;48.880;8.328;2023-04-28T06:09:16;5.13;;;2.38;;
7031;SDS011;3557;48.880;8.328;2023-04-28T06:11:44;5.97;;;2.63;;
7031;SDS011;3557;48.880;8.328;2023-04-28T06:14:13;4.43;;;2.50;;
7031;SDS011;3557;48.880;8.328;2023-04-28T06:16:41;2.85;;;2.55;;
7031;SDS011;3557;48.880;8.328;2023-04-28T06:19:09;3.33;;;2.22;;
7031;SDS011;3557;48.880;8.328;2023-04-28T06:21:38;3.65;;;2.38;;
7031;SDS011;3557;48.880;8.328;2023-04-28T06:24:06;6.07;;;2.10;;
7031;SDS011;3557;48.880;8.328;2023-04-28T06:26:34;2.72;;;2.10;;
7031;SDS011;3557;48.880;8.328;2023-04-28T06:29:01;2.28;;;1.88;;
7031;SDS011;3557;48.880;8.328;2023-04-28T06:31:30;2.38;;;2.08;;
7031;SDS011;3557;48.880;8.328;2023-04-28T06:33:57;3.53;;;1.92;;
7031;SDS011;3557;48.880;8.328;2023-04-28T06:36:25;5.38;;;2.13;;
7031;SDS011;3557;48.880;8.328;2023-04-28T06:38:52;2.47;;;1.90;;
7031;SDS011;3557;48.880;8.328;2023-04-28T06:41:20;2.60;;;1.70;;
7031;SDS011;3557;48.880;8.328;2023-04-28T06:43:50;2.45;;;1.92;;
7031;SDS011;3557;48.880;8.328;2023-04-28T06:46:27;2.22;;;1.98;;
7031;SDS011;3557;48.880;8.328;2023-04-28T06:48:57;2.00;;;1.70;;
7031;SDS011;3557;48.880;8.328;2023-04-28T06:51:25;2.60;;;1.70;;
7031;SDS011;3557;48.880;8.328;2023-04-28T06:53:53;1.77;;;1.67;;
7031;SDS011;3557;48.880;8.328;2023-04-28T06:56:20;2.05;;;1.90;;
7031;SDS011;3557;48.880;8.328;2023-04-28T06:58:47;2.15;;;1.95;;
7031;SDS011;3557;48.880;8.328;2023-04-28T07:01:15;2.25;;;1.75;;
7031;SDS011;3557;48.880;8.328;2023-04-28T07:03:42;2.65;;;2.00;;
7031;SDS011;3557;48.880;8.328;2023-04-28T07:06:12;2.20;;;2.00;;
7031;SDS011;3557;48.880;8.328;2023-04-28T07:08:40;2.65;;;2.00;;
7031;SDS011;3557;48.880;8.328;2023-04-28T07:11:08;1.88;;;1.77;;
7031;SDS011;3557;48.880;8.328;2023-04-28T07:13:35;3.92;;;2.17;;
7031;SDS011;3557;48.880;8.328;2023-04-28T07:16:03;2.78;;;1.90;;
7031;SDS011;3557;48.880;8.328;2023-04-28T07:18:31;2.53;;;2.20;;
7031;SDS011;3557;48.880;8.328;2023-04-28T07:20:58;3.90;;;2.40;;
7031;SDS011;3557;48.880;8.328;2023-04-28T07:23:27;2.40;;;2.10;;
7031;SDS011;3557;48.880;8.328;2023-04-28T07:25:54;2.90;;;2.13;;
7031;SDS011;3557;48.880;8.328;2023-04-28T07:28:22;2.30;;;2.10;;
7031;SDS011;3557;48.880;8.328;2023-04-28T07:30:49;3.63;;;2.60;;
7031;SDS011;3557;48.880;8.328;2023-04-28T07:33:17;4.05;;;2.33;;
7031;SDS011;3557;48.880;8.328;2023-04-28T07:35:45;2.78;;;2.47;;
7031;SDS011;3557;48.880;8.328;2023-04-28T07:38:13;3.70;;;2.70;;
7031;SDS011;3557;48.880;8.328;2023-04-28T07:40:42;3.67;;;2.63;;
7031;SDS011;3557;48.880;8.328;2023-04-28T07:43:09;3.95;;;3.00;;
7031;SDS011;3557;48.880;8.328;2023-04-28T07:45:37;4.00;;;3.35;;
7031;SDS011;3557;48.880;8.328;2023-04-28T07:48:05;4.60;;;3.25;;
7031;SDS011;3557;48.880;8.328;2023-04-28T07:50:33;4.20;;;3.38;;
7031;SDS011;3557;48.880;8.328;2023-04-28T07:53:00;7.05;;;3.35;;
7031;SDS011;3557;48.880;8.328;2023-04-28T07:55:28;5.80;;;3.63;;
7031;SDS011;3557;48.880;8.328;2023-04-28T07:57:57;5.30;;;3.60;;
7031;SDS011;3557;48.880;8.328;2023-04-28T08:00:24;3.72;;;3.42;;
7031;SDS011;3557;48.880;8.328;2023-04-28T08:02:51;4.72;;;3.58;;
7031;SDS011;3557;48.880;8.328;2023-04-28T08:05:19;5.70;;;3.65;;
7031;SDS011;3557;48.880;8.328;2023-04-28T08:07:46;5.80;;;3.35;;
7031;SDS011;3557;48.880;8.328;2023-04-28T08:10:14;4.85;;;3.40;;
7031;SDS011;3557;48.880;8.328;2023-04-28T08:12:41;4.13;;;3.70;;
7031;SDS011;3557;48.880;8.328;2023-04-28T08:15:10;4.20;;;3.80;;
7031;SDS011;3557;48.880;8.328;2023-04-28T08:17:38;4.13;;;3.45;;
7031;SDS011;3557;48.880;8.328;2023-04-28T08:20:06;3.97;;;3.58;;
7031;SDS011;3557;48.880;8.328;2023-04-28T08:22:34;3.72;;;3.30;;
7031;SDS011;3557;48.880;8.328;2023-04-28T08:25:02;4.68;;;3.60;;
7031;SDS011;3557;48.880;8.328;2023-04-28T08:27:30;4.70;;;3.28;;
7031;SDS011;3557;48.880;8.328;2023-04-28T08:29:58;4.35;;;3.28;;
7031;SDS011;3557;48.880;8.328;2023-04-28T08:32:27;6.38;;;4.07;;
7031;SDS011;3557;48.880;8.328;2023-04-28T08:34:54;6.45;;;3.70;;
7031;SDS011;3557;48.880;8.328;2023-04-28T08:37:21;6.70;;;3.60;;
7031;SDS011;3557;48.880;8.328;2023-04-28T08:39:49;4.10;;;3.70;;
7031;SDS011;3557;48.880;8.328;2023-04-28T08:42:24;4.20;;;3.30;;
7031;SDS011;3557;48.880;8.328;2023-04-28T08:44:52;4.40;;;3.40;;
7031;SDS011;3557;48.880;8.328;2023-04-28T08:47:23;3.53;;;2.80;;
7031;SDS011;3557;48.880;8.328;2023-04-28T08:49:54;3.50;;;2.40;;
7031;SDS011;3557;48.880;8.328;2023-04-28T08:52:25;2.60;;;2.38;;
7031;SDS011;3557;48.880;8.328;2023-04-28T08:54:53;3.13;;;2.60;;
7031;SDS011;3557;48.880;8.328;2023-04-28T08:57:21;3.83;;;2.28;;
7031;SDS011;3557;48.880;8.328;2023-04-28T08:59:48;2.72;;;2.25;;
7031;SDS011;3557;48.880;8.328;2023-04-28T09:02:16;2.20;;;1.95;;
7031;SDS011;3557;48.880;8.328;2023-04-28T09:04:46;2.25;;;2.05;;
7031;SDS011;3557;48.880;8.328;2023-04-28T09:07:14;2.28;;;1.90;;
7031;SDS011;3557;48.880;8.328;2023-04-28T09:09:41;2.00;;;1.80;;
7031;SDS011;3557;48.880;8.328;2023-04-28T09:12:09;2.00;;;1.80;;
7031;SDS011;3557;48.880;8.328;2023-04-28T09:14:37;2.20;;;2.00;;
7031;SDS011;3557;48.880;8.328;2023-04-28T09:17:08;2.15;;;1.95;;
7031;SDS011;3557;48.880;8.328;2023-04-28T09:19:38;2.08;;;1.88;;
7031;SDS011;3557;48.880;8.328;2023-04-28T09:22:08;2.25;;;1.85;;
7031;SDS011;3557;48.880;8.328;2023-04-28T09:24:36;1.63;;;1.52;;
7031;SDS011;3557;48.880;8.328;2023-04-28T09:27:06;2.55;;;1.48;;
7031;SDS011;3557;48.880;8.328;2023-04-28T09:29:36;1.60;;;1.50;;
7031;SDS011;3557;48.880;8.328;2023-04-28T09:32:11;4.97;;;2.45;;
7031;SDS011;3557;48.880;8.328;2023-04-28T09:34:43;1.70;;;1.60;;
7031;SDS011;3557;48.880;8.328;2023-04-28T09:37:16;1.50;;;1.40;;
7031;SDS011;3557;48.880;8.328;2023-04-28T09:39:46;1.88;;;1.50;;
7031;SDS011;3557;48.880;8.328;2023-04-28T09:42:30;1.73;;;1.63;;
7031;SDS011;3557;48.880;8.328;2023-04-28T09:44:59;2.05;;;1.73;;
7031;SDS011;3557;48.880;8.328;2023-04-28T09:47:27;1.50;;;1.40;;
7031;SDS011;3557;48.880;8.328;2023-04-28T09:49:56;1.67;;;1.35;;
7031;SDS011;3557;48.880;8.328;2023-04-28T09:52:26;1.40;;;1.30;;
7031;SDS011;3557;48.880;8.328;2023-04-28T09:54:54;3.00;;;1.60;;
7031;SDS011;3557;48.880;8.328;2023-04-28T09:57:22;1.80;;;1.40;;
7031;SDS011;3557;48.880;8.328;2023-04-28T09:59:50;1.50;;;1.40;;
7031;SDS011;3557;48.880;8.328;2023-04-28T10:02:19;1.40;;;1.30;;
7031;SDS011;3557;48.880;8.328;2023-04-28T10:04:48;1.27;;;1.20;;
7031;SDS011;3557;48.880;8.328;2023-04-28T10:07:17;1.42;;;1.20;;
7031;SDS011;3557;48.880;8.328;2023-04-28T10:09:47;1.35;;;1.25;;
7031;SDS011;3557;48.880;8.328;2023-04-28T10:12:16;1.13;;;1.10;;
7031;SDS011;3557;48.880;8.328;2023-04-28T10:14:43;1.13;;;1.10;;
7031;SDS011;3557;48.880;8.328;2023-04-28T10:17:14;1.08;;;1.08;;
7031;SDS011;3557;48.880;8.328;2023-04-28T10:19:43;2.75;;;1.63;;
7031;SDS011;3557;48.880;8.328;2023-04-28T10:22:24;1.67;;;1.58;;
7031;SDS011;3557;48.880;8.328;2023-04-28T10:25:15;1.88;;;1.75;;
7031;SDS011;3557;48.880;8.328;2023-04-28T10:27:51;1.40;;;1.30;;
7031;SDS011;3557;48.880;8.328;2023-04-28T10:30:20;1.50;;;1.40;;
7031;SDS011;3557;48.880;8.328;2023-04-28T10:33:21;2.33;;;1.50;;
7031;SDS011;3557;48.880;8.328;2023-04-28T10:35:51;2.20;;;1.80;;
7031;SDS011;3557;48.880;8.328;2023-04-28T10:38:18;1.40;;;1.30;;
7031;SDS011;3557;48.880;8.328;2023-04-28T10:40:48;1.70;;;1.60;;
7031;SDS011;3557;48.880;8.328;2023-04-28T10:43:31;1.40;;;1.30;;
7031;SDS011;3557;48.880;8.328;2023-04-28T10:46:02;0.90;;;0.90;;
7031;SDS011;3557;48.880;8.328;2023-04-28T10:51:32;1.42;;;1.33;;
7031;SDS011;3557;48.880;8.328;2023-04-28T10:54:14;1.20;;;1.10;;
7031;SDS011;3557;48.880;8.328;2023-04-28T10:59:49;1.08;;;1.08;;
7031;SDS011;3557;48.880;8.328;2023-04-28T11:02:35;1.30;;;1.20;;
7031;SDS011;3557;48.880;8.328;2023-04-28T11:13:52;1.75;;;1.40;;
7031;SDS011;3557;48.880;8.328;2023-04-28T11:16:21;1.45;;;1.10;;
7031;SDS011;3557;48.880;8.328;2023-04-28T11:18:51;3.42;;;1.30;;
7031;SDS011;3557;48.880;8.328;2023-04-28T11:21:27;3.95;;;1.20;;
7031;SDS011;3557;48.880;8.328;2023-04-28T11:23:54;1.13;;;1.10;;
7031;SDS011;3557;48.880;8.328;2023-04-28T11:26:23;2.53;;;1.23;;
7031;SDS011;3557;48.880;8.328;2023-04-28T11:28:53;1.40;;;1.30;;
7031;SDS011;3557;48.880;8.328;2023-04-28T11:31:22;1.38;;;1.27;;
7031;SDS011;3557;48.880;8.328;2023-04-28T11:33:51;1.27;;;1.15;;
7031;SDS011;3557;48.880;8.328;2023-04-28T11:36:25;1.35;;;1.05;;
7031;SDS011;3557;48.880;8.328;2023-04-28T11:38:58;1.50;;;1.40;;
7031;SDS011;3557;48.880;8.328;2023-04-28T11:41:26;1.20;;;1.10;;
7031;SDS011;3557;48.880;8.328;2023-04-28T11:43:55;1.40;;;1.30;;
7031;SDS011;3557;48.880;8.328;2023-04-28T11:46:22;1.30;;;1.20;;
7031;SDS011;3557;48.880;8.328;2023-04-28T11:49:01;0.98;;;0.93;;
7031;SDS011;3557;48.880;8.328;2023-04-28T11:51:31;0.98;;;0.98;;
7031;SDS011;3557;48.880;8.328;2023-04-28T11:54:03;1.90;;;1.20;;
7031;SDS011;3557;48.880;8.328;2023-04-28T11:56:35;3.20;;;1.20;;
7031;SDS011;3557;48.880;8.328;2023-04-28T11:59:10;0.90;;;0.90;;
7031;SDS011;3557;48.880;8.328;2023-04-28T12:01:47;0.95;;;0.95;;
7031;SDS011;3557;48.880;8.328;2023-04-28T12:04:25;2.25;;;1.40;;
7031;SDS011;3557;48.880;8.328;2023-04-28T12:07:02;1.10;;;1.05;;
7031;SDS011;3557;48.880;8.328;2023-04-28T12:09:31;1.10;;;1.00;;
7031;SDS011;3557;48.880;8.328;2023-04-28T12:12:01;0.85;;;0.85;;
7031;SDS011;3557;48.880;8.328;2023-04-28T12:14:31;1.10;;;1.10;;
7031;SDS011;3557;48.880;8.328;2023-04-28T12:17:22;1.17;;;1.08;;
7031;SDS011;3557;48.880;8.328;2023-04-28T12:19:50;1.83;;;1.02;;
7031;SDS011;3557;48.880;8.328;2023-04-28T12:22:18;1.20;;;1.20;;
7031;SDS011;3557;48.880;8.328;2023-04-28T12:24:45;1.05;;;1.02;;
7031;SDS011;3557;48.880;8.328;2023-04-28T12:27:26;1.02;;;1.00;;
7031;SDS011;3557;48.880;8.328;2023-04-28T12:29:56;1.00;;;1.00;;
7031;SDS011;3557;48.880;8.328;2023-04-28T12:32:36;1.30;;;1.20;;
7031;SDS011;3557;48.880;8.328;2023-04-28T12:35:04;1.30;;;1.20;;
7031;SDS011;3557;48.880;8.328;2023-04-28T12:37:33;1.15;;;1.15;;
7031;SDS011;3557;48.880;8.328;2023-04-28T12:40:02;1.05;;;1.05;;
7031;SDS011;3557;48.880;8.328;2023-04-28T12:42:31;1.15;;;1.00;;
7031;SDS011;3557;48.880;8.328;2023-04-28T12:44:59;3.03;;;1.15;;
7031;SDS011;3557;48.880;8.328;2023-04-28T12:47:27;0.88;;;0.88;;
7031;SDS011;3557;48.880;8.328;2023-04-28T12:49:54;2.88;;;1.30;;
7031;SDS011;3557;48.880;8.328;2023-04-28T12:52:22;1.02;;;1.02;;
7031;SDS011;3557;48.880;8.328;2023-04-28T12:54:49;1.33;;;1.05;;
7031;SDS011;3557;48.880;8.328;2023-04-28T12:57:17;4.65;;;1.20;;
7031;SDS011;3557;48.880;8.328;2023-04-28T12:59:46;1.70;;;1.10;;
7031;SDS011;3557;48.880;8.328;2023-04-28T13:02:14;1.85;;;1.00;;
7031;SDS011;3557;48.880;8.328;2023-04-28T13:04:42;1.08;;;1.05;;
7031;SDS011;3557;48.880;8.328;2023-04-28T13:07:10;2.28;;;1.17;;
7031;SDS011;3557;48.880;8.328;2023-04-28T13:09:37;1.25;;;1.15;;
7031;SDS011;3557;48.880;8.328;2023-04-28T13:12:06;1.65;;;1.05;;
7031;SDS011;3557;48.880;8.328;2023-04-28T13:14:34;1.20;;;1.10;;
7031;SDS011;3557;48.880;8.328;2023-04-28T13:17:01;2.75;;;1.27;;
7031;SDS011;3557;48.880;8.328;2023-04-28T13:19:30;1.50;;;1.40;;
7031;SDS011;3557;48.880;8.328;2023-04-28T13:21:58;1.20;;;1.10;;
7031;SDS011;3557;48.880;8.328;2023-04-28T13:24:29;1.98;;;1.23;;
7031;SDS011;3557;48.880;8.328;2023-04-28T13:26:57;1.42;;;1.10;;
7031;SDS011;3557;48.880;8.328;2023-04-28T13:29:24;1.00;;;1.00;;
7031;SDS011;3557;48.880;8.328;2023-04-28T13:31:52;1.55;;;1.30;;
7031;SDS011;3557;48.880;8.328;2023-04-28T13:34:19;1.40;;;1.30;;
7031;SDS011;3557;48.880;8.328;2023-04-28T13:36:48;1.52;;;1.42;;
7031;SDS011;3557;48.880;8.328;2023-04-28T13:39:18;1.50;;;1.40;;
7031;SDS011;3557;48.880;8.328;2023-04-28T13:41:46;1.35;;;1.27;;
7031;SDS011;3557;48.880;8.328;2023-04-28T13:44:14;1.40;;;1.30;;
7031;SDS011;3557;48.880;8.328;2023-04-28T13:46:41;1.00;;;1.00;;
7031;SDS011;3557;48.880;8.328;2023-04-28T13:49:09;1.50;;;1.23;;
7031;SDS011;3557;48.880;8.328;2023-04-28T13:51:37;1.83;;;1.40;;
7031;SDS011;3557;48.880;8.328;2023-04-28T13:54:06;1.75;;;1.27;;
7031;SDS011;3557;48.880;8.328;2023-04-28T13:56:35;1.20;;;1.10;;
7031;SDS011;3557;48.880;8.328;2023-04-28T13:59:02;1.10;;;1.10;;
7031;SDS011;3557;48.880;8.328;2023-04-28T14:01:30;1.85;;;1.50;;
7031;SDS011;3557;48.880;8.328;2023-04-28T14:03:57;1.85;;;1.45;;
7031;SDS011;3557;48.880;8.328;2023-04-28T14:06:25;1.15;;;1.13;;
7031;SDS011;3557;48.880;8.328;2023-04-28T14:08:53;1.38;;;1.27;;
7031;SDS011;3557;48.880;8.328;2023-04-28T14:11:22;1.60;;;1.40;;
7031;SDS011;3557;48.880;8.328;2023-04-28T14:13:49;3.92;;;1.40;;
7031;SDS011;3557;48.880;8.328;2023-04-28T14:16:16;2.33;;;1.38;;
7031;SDS011;3557;48.880;8.328;2023-04-28T14:18:44;1.10;;;1.10;;
7031;SDS011;3557;48.880;8.328;2023-04-28T14:21:11;1.40;;;1.30;;
7031;SDS011;3557;48.880;8.328;2023-04-28T14:23:38;1.50;;;1.40;;
7031;SDS011;3557;48.880;8.328;2023-04-28T14:26:06;1.45;;;1.30;;
7031;SDS011;3557;48.880;8.328;2023-04-28T14:28:35;1.35;;;1.20;;
7031;SDS011;3557;48.880;8.328;2023-04-28T14:31:02;1.33;;;1.23;;
7031;SDS011;3557;48.880;8.328;2023-04-28T14:33:32;1.38;;;0.80;;
7031;SDS011;3557;48.880;8.328;2023-04-28T14:35:59;1.27;;;1.10;;
7031;SDS011;3557;48.880;8.328;2023-04-28T14:38:27;1.13;;;1.00;;
7031;SDS011;3557;48.880;8.328;2023-04-28T14:40:54;0.90;;;0.90;;
7031;SDS011;3557;48.880;8.328;2023-04-28T14:43:22;0.95;;;0.95;;
7031;SDS011;3557;48.880;8.328;2023-04-28T14:45:51;1.00;;;1.00;;
7031;SDS011;3557;48.880;8.328;2023-04-28T14:48:18;1.92;;;1.02;;
7031;SDS011;3557;48.880;8.328;2023-04-28T14:50:46;0.98;;;0.98;;
7031;SDS011;3557;48.880;8.328;2023-04-28T14:53:15;1.63;;;0.90;;
7031;SDS011;3557;48.880;8.328;2023-04-28T14:55:43;0.75;;;0.75;;
7031;SDS011;3557;48.880;8.328;2023-04-28T14:58:10;1.10;;;1.00;;
7031;SDS011;3557;48.880;8.328;2023-04-28T15:00:38;1.85;;;1.10;;
7031;SDS011;3557;48.880;8.328;2023-04-28T15:03:07;1.00;;;1.00;;
7031;SDS011;3557;48.880;8.328;2023-04-28T15:05:34;1.00;;;1.00;;
7031;SDS011;3557;48.880;8.328;2023-04-28T15:08:01;2.38;;;1.00;;
7031;SDS011;3557;48.880;8.328;2023-04-28T15:10:31;1.20;;;1.10;;
7031;SDS011;3557;48.880;8.328;2023-04-28T15:13:03;1.10;;;1.10;;
7031;SDS011;3557;48.880;8.328;2023-04-28T15:15:31;1.55;;;1.45;;
7031;SDS011;3557;48.880;8.328;2023-04-28T15:17:58;2.08;;;1.75;;
7031;SDS011;3557;48.880;8.328;2023-04-28T15:20:27;1.50;;;1.40;;
7031;SDS011;3557;48.880;8.328;2023-04-28T15:22:57;5.05;;;2.38;;
7031;SDS011;3557;48.880;8.328;2023-04-28T15:25:24;2.30;;;1.70;;
7031;SDS011;3557;48.880;8.328;2023-04-28T15:27:52;2.92;;;1.50;;
7031;SDS011;3557;48.880;8.328;2023-04-28T15:30:20;2.15;;;1.50;;
7031;SDS011;3557;48.880;8.328;2023-04-28T15:32:47;4.88;;;2.00;;
7031;SDS011;3557;48.880;8.328;2023-04-28T15:35:15;3.50;;;2.20;;
7031;SDS011;3557;48.880;8.328;2023-04-28T15:37:44;7.32;;;2.50;;
7031;SDS011;3557;48.880;8.328;2023-04-28T15:40:14;2.30;;;2.00;;
7031;SDS011;3557;48.880;8.328;2023-04-28T15:42:43;1.63;;;1.52;;